Chicago Rockford International Airport
KRFD : now visible

Airfield :











YOU CAN JOIN US ON...

 
LOGIN :

Register | Disclaimer

   EN    FR    IT 

 









Legend :    VFR   Marginal VFR   IFR   Intensive IFR   Very Intensive IFR
Visi :
Ceiling :
>= 8 km
>= 3000ft
5 to 8 km
1000 to 3000 ft
1500m to 5 km
500 to 1000 ft
800 to 1500m
200 to 500 ft
< 800m
< 200 ft
Symbols :   Thunderstorms  Fog  Heavy snow  Heavy precipitations  Wind > 20 kt






- Airport Elevation : 742 ft
- IATA code : RFD


KRFD - Chicago Rockford International

CURRENT METAR :
  • 140554Z 18003KT 6SM -SN BR FEW055 BKN090 OVC110 M04/M06 A3009 RMK AO2 SLPNO 4/004 P0000 60004 T10441061 11033 21050 410281128 58001

EXPIRED METARs :
  • 140533Z 19003KT 5SM -SN BR BKN050 BKN070 OVC095 M05/M06 A3009 RMK AO2 P0000 T10501061
  • 140511Z 19003KT 5SM -SN BR BKN028 BKN090 OVC160 M04/M06 A3009 RMK AO2 P0000 T10441056
  • 140454Z 18004KT 2SM -SN BR OVC032 M04/M06 A3009 RMK AO2 SFC VIS 2 1/2 SLP202 P0001 T10391056
  • 140354Z 19004KT 2SM -SN BR OVC031 M04/M06 A3009 RMK AO2 SLP203 P0001 T10391056

TAF KRFD
Valid from the 14 at 06:00 until the 15 at 06:00 UTC


140530Z 1406/1506 24006KT 3SM -SN SCT015 OVC020
FM140715 25005KT P6SM SCT012 OVC020
FM141100 31006KT P6SM SCT012 OVC020
TEMPO 1411/1415 BKN010
FM142200 27008KT P6SM SCT025 BKN035



MET'MAP, your aeronautical weather chart ! - Copyright ORBIFLY December 2007 - Disclaimer

ORBIFLY MET'MAP TEAM :

Programming & Development : Alexandra Zaïnal
Concept & Development : Baudouin d'Aumeries
Co-Development & Prog : Marc-Olivier Méhu
Technical & hardware support : Manuel Goepfert

Contact : metmap@orbifly.com




SOURCES & CREDITS :

   NOAA       Earth
Advisory